sensor_id;sensor_type;location;lat;lon;timestamp;P1;durP1;ratioP1;P2;durP2;ratioP2
16387;SDS011;8303;53.446;9.988;2022-08-14T04:46:40;16.10;;;15.05;;
16387;SDS011;8303;53.446;9.988;2022-08-14T04:49:29;16.98;;;15.93;;
16387;SDS011;8303;53.446;9.988;2022-08-14T04:51:55;17.50;;;16.42;;
16387;SDS011;8303;53.446;9.988;2022-08-14T04:54:23;20.17;;;18.88;;
16387;SDS011;8303;53.446;9.988;2022-08-14T04:56:51;18.92;;;17.83;;
16387;SDS011;8303;53.446;9.988;2022-08-14T04:59:19;17.83;;;16.27;;
16387;SDS011;8303;53.446;9.988;2022-08-14T05:01:47;13.63;;;12.43;;
16387;SDS011;8303;53.446;9.988;2022-08-14T05:04:15;13.82;;;12.73;;
16387;SDS011;8303;53.446;9.988;2022-08-14T05:06:42;15.85;;;14.65;;
16387;SDS011;8303;53.446;9.988;2022-08-14T05:09:09;14.82;;;13.52;;
16387;SDS011;8303;53.446;9.988;2022-08-14T05:11:36;11.15;;;10.18;;
16387;SDS011;8303;53.446;9.988;2022-08-14T05:14:03;10.52;;;8.98;;
16387;SDS011;8303;53.446;9.988;2022-08-14T05:16:30;11.68;;;10.57;;
16387;SDS011;8303;53.446;9.988;2022-08-14T05:18:58;9.75;;;8.95;;
16387;SDS011;8303;53.446;9.988;2022-08-14T05:21:25;10.00;;;9.20;;
16387;SDS011;8303;53.446;9.988;2022-08-14T05:23:53;8.02;;;7.32;;
16387;SDS011;8303;53.446;9.988;2022-08-14T05:26:20;8.25;;;7.53;;
16387;SDS011;8303;53.446;9.988;2022-08-14T05:28:47;5.68;;;5.03;;
16387;SDS011;8303;53.446;9.988;2022-08-14T05:31:15;6.30;;;5.70;;
16387;SDS011;8303;53.446;9.988;2022-08-14T05:33:42;7.82;;;7.10;;
16387;SDS011;8303;53.446;9.988;2022-08-14T05:36:12;10.23;;;5.88;;
16387;SDS011;8303;53.446;9.988;2022-08-14T05:38:40;6.22;;;5.43;;
16387;SDS011;8303;53.446;9.988;2022-08-14T05:41:10;11.25;;;10.38;;
16387;SDS011;8303;53.446;9.988;2022-08-14T05:43:38;9.13;;;8.32;;
16387;SDS011;8303;53.446;9.988;2022-08-14T05:46:06;16.70;;;15.60;;
16387;SDS011;8303;53.446;9.988;2022-08-14T05:48:34;13.75;;;12.80;;
16387;SDS011;8303;53.446;9.988;2022-08-14T05:51:02;19.83;;;18.63;;
16387;SDS011;8303;53.446;9.988;2022-08-14T05:53:30;17.15;;;16.02;;
16387;SDS011;8303;53.446;9.988;2022-08-14T05:55:57;11.90;;;11.07;;
16387;SDS011;8303;53.446;9.988;2022-08-14T05:58:24;15.18;;;13.98;;
16387;SDS011;8303;53.446;9.988;2022-08-14T06:00:51;12.20;;;11.15;;
16387;SDS011;8303;53.446;9.988;2022-08-14T06:03:20;10.55;;;9.35;;
16387;SDS011;8303;53.446;9.988;2022-08-14T06:05:48;12.93;;;12.07;;
16387;SDS011;8303;53.446;9.988;2022-08-14T06:08:17;12.50;;;11.60;;
16387;SDS011;8303;53.446;9.988;2022-08-14T06:10:47;23.70;;;22.30;;
16387;SDS011;8303;53.446;9.988;2022-08-14T06:13:15;26.30;;;24.75;;
16387;SDS011;8303;53.446;9.988;2022-08-14T06:15:42;24.98;;;23.40;;
16387;SDS011;8303;53.446;9.988;2022-08-14T06:18:09;24.02;;;22.23;;
16387;SDS011;8303;53.446;9.988;2022-08-14T06:20:36;34.70;;;31.60;;
16387;SDS011;8303;53.446;9.988;2022-08-14T06:23:03;42.75;;;39.97;;
16387;SDS011;8303;53.446;9.988;2022-08-14T06:25:30;36.08;;;33.70;;
16387;SDS011;8303;53.446;9.988;2022-08-14T06:27:59;32.15;;;30.30;;
16387;SDS011;8303;53.446;9.988;2022-08-14T06:30:26;22.35;;;20.58;;
16387;SDS011;8303;53.446;9.988;2022-08-14T06:32:54;34.50;;;32.22;;
16387;SDS011;8303;53.446;9.988;2022-08-14T06:35:21;25.52;;;23.75;;
16387;SDS011;8303;53.446;9.988;2022-08-14T06:37:49;27.58;;;25.90;;
16387;SDS011;8303;53.446;9.988;2022-08-14T06:40:17;23.52;;;22.08;;
16387;SDS011;8303;53.446;9.988;2022-08-14T06:42:45;18.10;;;16.80;;
16387;SDS011;8303;53.446;9.988;2022-08-14T06:45:13;11.13;;;10.13;;
16387;SDS011;8303;53.446;9.988;2022-08-14T06:47:41;13.15;;;12.25;;
16387;SDS011;8303;53.446;9.988;2022-08-14T06:50:11;9.82;;;9.10;;
16387;SDS011;8303;53.446;9.988;2022-08-14T06:52:39;11.55;;;10.43;;
16387;SDS011;8303;53.446;9.988;2022-08-14T06:55:07;13.60;;;12.50;;
16387;SDS011;8303;53.446;9.988;2022-08-14T06:57:37;17.15;;;16.08;;
16387;SDS011;8303;53.446;9.988;2022-08-14T07:00:06;17.42;;;15.05;;
16387;SDS011;8303;53.446;9.988;2022-08-14T07:02:36;30.15;;;28.40;;
16387;SDS011;8303;53.446;9.988;2022-08-14T07:05:21;37.83;;;35.53;;
16387;SDS011;8303;53.446;9.988;2022-08-14T07:08:21;30.60;;;28.48;;
16387;SDS011;8303;53.446;9.988;2022-08-14T07:10:51;39.90;;;37.58;;
16387;SDS011;8303;53.446;9.988;2022-08-14T07:13:19;51.33;;;48.38;;
16387;SDS011;8303;53.446;9.988;2022-08-14T07:15:48;33.40;;;31.15;;
16387;SDS011;8303;53.446;9.988;2022-08-14T07:18:19;31.77;;;29.67;;
16387;SDS011;8303;53.446;9.988;2022-08-14T07:20:47;29.25;;;27.38;;
16387;SDS011;8303;53.446;9.988;2022-08-14T07:23:14;27.40;;;25.50;;
16387;SDS011;8303;53.446;9.988;2022-08-14T07:25:42;12.52;;;11.43;;
16387;SDS011;8303;53.446;9.988;2022-08-14T07:28:10;10.32;;;9.40;;
16387;SDS011;8303;53.446;9.988;2022-08-14T07:30:38;12.00;;;9.98;;
16387;SDS011;8303;53.446;9.988;2022-08-14T07:33:05;9.65;;;8.85;;
16387;SDS011;8303;53.446;9.988;2022-08-14T07:35:34;8.77;;;7.75;;
16387;SDS011;8303;53.446;9.988;2022-08-14T07:38:02;10.40;;;9.35;;
16387;SDS011;8303;53.446;9.988;2022-08-14T07:40:29;8.88;;;8.27;;
16387;SDS011;8303;53.446;9.988;2022-08-14T07:42:56;9.43;;;8.57;;
16387;SDS011;8303;53.446;9.988;2022-08-14T07:45:23;9.60;;;8.73;;
16387;SDS011;8303;53.446;9.988;2022-08-14T07:47:50;9.35;;;8.55;;
16387;SDS011;8303;53.446;9.988;2022-08-14T07:50:17;11.35;;;10.05;;
16387;SDS011;8303;53.446;9.988;2022-08-14T07:52:47;11.52;;;10.65;;
16387;SDS011;8303;53.446;9.988;2022-08-14T07:55:14;12.93;;;11.40;;
16387;SDS011;8303;53.446;9.988;2022-08-14T07:57:42;11.38;;;10.18;;
16387;SDS011;8303;53.446;9.988;2022-08-14T08:00:12;10.90;;;9.88;;
16387;SDS011;8303;53.446;9.988;2022-08-14T08:02:41;11.73;;;10.65;;
16387;SDS011;8303;53.446;9.988;2022-08-14T08:05:10;9.25;;;8.63;;
16387;SDS011;8303;53.446;9.988;2022-08-14T08:07:39;15.10;;;9.82;;
16387;SDS011;8303;53.446;9.988;2022-08-14T08:10:09;11.48;;;10.43;;
16387;SDS011;8303;53.446;9.988;2022-08-14T08:12:54;11.63;;;10.80;;
16387;SDS011;8303;53.446;9.988;2022-08-14T08:15:22;11.07;;;10.02;;
16387;SDS011;8303;53.446;9.988;2022-08-14T08:17:51;9.38;;;8.68;;
16387;SDS011;8303;53.446;9.988;2022-08-14T08:20:19;10.75;;;9.77;;
16387;SDS011;8303;53.446;9.988;2022-08-14T08:22:47;11.13;;;10.18;;
16387;SDS011;8303;53.446;9.988;2022-08-14T08:25:16;12.52;;;11.63;;
16387;SDS011;8303;53.446;9.988;2022-08-14T08:27:53;12.60;;;11.35;;
16387;SDS011;8303;53.446;9.988;2022-08-14T08:30:24;12.23;;;11.20;;
16387;SDS011;8303;53.446;9.988;2022-08-14T08:32:52;14.77;;;12.48;;
16387;SDS011;8303;53.446;9.988;2022-08-14T08:35:21;15.25;;;13.88;;
16387;SDS011;8303;53.446;9.988;2022-08-14T08:37:50;12.77;;;11.75;;
16387;SDS011;8303;53.446;9.988;2022-08-14T08:40:23;12.82;;;11.93;;
16387;SDS011;8303;53.446;9.988;2022-08-14T08:42:51;10.88;;;9.80;;
16387;SDS011;8303;53.446;9.988;2022-08-14T08:45:19;13.85;;;12.65;;
16387;SDS011;8303;53.446;9.988;2022-08-14T08:47:48;10.15;;;8.43;;
16387;SDS011;8303;53.446;9.988;2022-08-14T08:50:19;12.13;;;9.95;;
16387;SDS011;8303;53.446;9.988;2022-08-14T08:52:49;13.13;;;11.85;;
16387;SDS011;8303;53.446;9.988;2022-08-14T08:55:24;11.82;;;10.75;;
16387;SDS011;8303;53.446;9.988;2022-08-14T08:57:56;14.50;;;12.93;;
16387;SDS011;8303;53.446;9.988;2022-08-14T09:00:24;8.38;;;7.57;;
16387;SDS011;8303;53.446;9.988;2022-08-14T09:02:55;11.35;;;10.50;;
16387;SDS011;8303;53.446;9.988;2022-08-14T09:05:23;8.60;;;7.47;;
16387;SDS011;8303;53.446;9.988;2022-08-14T09:07:50;9.80;;;8.95;;
16387;SDS011;8303;53.446;9.988;2022-08-14T09:10:17;10.77;;;8.88;;
16387;SDS011;8303;53.446;9.988;2022-08-14T09:12:46;9.07;;;8.23;;
16387;SDS011;8303;53.446;9.988;2022-08-14T09:15:13;10.32;;;8.48;;
16387;SDS011;8303;53.446;9.988;2022-08-14T09:17:40;8.95;;;8.35;;
16387;SDS011;8303;53.446;9.988;2022-08-14T09:20:07;9.40;;;8.50;;
16387;SDS011;8303;53.446;9.988;2022-08-14T09:22:35;9.82;;;8.82;;
16387;SDS011;8303;53.446;9.988;2022-08-14T09:25:03;8.88;;;8.25;;
16387;SDS011;8303;53.446;9.988;2022-08-14T09:27:31;10.30;;;9.43;;
16387;SDS011;8303;53.446;9.988;2022-08-14T09:29:59;14.50;;;13.20;;
16387;SDS011;8303;53.446;9.988;2022-08-14T09:32:29;14.95;;;13.43;;
16387;SDS011;8303;53.446;9.988;2022-08-14T09:35:02;11.90;;;11.00;;
16387;SDS011;8303;53.446;9.988;2022-08-14T09:37:39;16.70;;;15.30;;
16387;SDS011;8303;53.446;9.988;2022-08-14T09:40:20;14.77;;;13.77;;
16387;SDS011;8303;53.446;9.988;2022-08-14T09:43:01;13.65;;;12.48;;
16387;SDS011;8303;53.446;9.988;2022-08-14T09:45:42;17.13;;;15.93;;
16387;SDS011;8303;53.446;9.988;2022-08-14T09:48:15;13.20;;;12.23;;
16387;SDS011;8303;53.446;9.988;2022-08-14T09:50:43;13.65;;;10.90;;
16387;SDS011;8303;53.446;9.988;2022-08-14T09:53:12;12.85;;;12.00;;
16387;SDS011;8303;53.446;9.988;2022-08-14T09:55:42;16.50;;;15.40;;
16387;SDS011;8303;53.446;9.988;2022-08-14T09:58:10;14.35;;;13.25;;
16387;SDS011;8303;53.446;9.988;2022-08-14T10:00:42;26.02;;;24.25;;
16387;SDS011;8303;53.446;9.988;2022-08-14T10:03:10;20.80;;;18.63;;
16387;SDS011;8303;53.446;9.988;2022-08-14T10:05:38;28.70;;;26.58;;
16387;SDS011;8303;53.446;9.988;2022-08-14T10:08:15;26.60;;;24.80;;
16387;SDS011;8303;53.446;9.988;2022-08-14T10:10:44;33.28;;;31.27;;
16387;SDS011;8303;53.446;9.988;2022-08-14T10:13:19;31.20;;;29.13;;
16387;SDS011;8303;53.446;9.988;2022-08-14T10:15:49;25.75;;;23.83;;
16387;SDS011;8303;53.446;9.988;2022-08-14T10:18:17;29.55;;;27.42;;
16387;SDS011;8303;53.446;9.988;2022-08-14T10:20:51;34.58;;;32.17;;
16387;SDS011;8303;53.446;9.988;2022-08-14T10:23:21;38.55;;;36.10;;
16387;SDS011;8303;53.446;9.988;2022-08-14T10:25:50;35.70;;;33.42;;
16387;SDS011;8303;53.446;9.988;2022-08-14T10:28:19;37.47;;;34.63;;
16387;SDS011;8303;53.446;9.988;2022-08-14T10:30:50;33.88;;;31.85;;
16387;SDS011;8303;53.446;9.988;2022-08-14T10:33:26;38.90;;;36.55;;
16387;SDS011;8303;53.446;9.988;2022-08-14T10:35:55;40.70;;;38.15;;
16387;SDS011;8303;53.446;9.988;2022-08-14T10:38:27;39.53;;;36.92;;
16387;SDS011;8303;53.446;9.988;2022-08-14T10:41:07;36.40;;;33.90;;
16387;SDS011;8303;53.446;9.988;2022-08-14T10:43:37;42.53;;;39.47;;
16387;SDS011;8303;53.446;9.988;2022-08-14T10:46:12;37.55;;;35.35;;
16387;SDS011;8303;53.446;9.988;2022-08-14T10:48:40;39.92;;;37.50;;
16387;SDS011;8303;53.446;9.988;2022-08-14T10:51:07;38.10;;;35.78;;
16387;SDS011;8303;53.446;9.988;2022-08-14T10:53:34;44.35;;;41.55;;
16387;SDS011;8303;53.446;9.988;2022-08-14T10:56:07;47.30;;;44.42;;
16387;SDS011;8303;53.446;9.988;2022-08-14T10:58:39;39.08;;;36.58;;
16387;SDS011;8303;53.446;9.988;2022-08-14T11:01:06;41.20;;;38.72;;
16387;SDS011;8303;53.446;9.988;2022-08-14T11:03:38;49.95;;;46.42;;
16387;SDS011;8303;53.446;9.988;2022-08-14T11:06:10;46.05;;;43.30;;
16387;SDS011;8303;53.446;9.988;2022-08-14T11:08:42;42.72;;;40.03;;
16387;SDS011;8303;53.446;9.988;2022-08-14T11:11:10;46.42;;;43.38;;
16387;SDS011;8303;53.446;9.988;2022-08-14T11:13:39;64.50;;;59.83;;
16387;SDS011;8303;53.446;9.988;2022-08-14T11:16:10;70.60;;;66.65;;
16387;SDS011;8303;53.446;9.988;2022-08-14T11:18:44;107.25;;;101.55;;
16387;SDS011;8303;53.446;9.988;2022-08-14T11:21:13;114.03;;;107.80;;
16387;SDS011;8303;53.446;9.988;2022-08-14T11:23:44;63.45;;;59.80;;
16387;SDS011;8303;53.446;9.988;2022-08-14T11:26:12;57.97;;;54.67;;
16387;SDS011;8303;53.446;9.988;2022-08-14T11:28:44;105.30;;;99.47;;
16387;SDS011;8303;53.446;9.988;2022-08-14T11:31:12;115.20;;;108.63;;
16387;SDS011;8303;53.446;9.988;2022-08-14T11:33:39;127.00;;;120.03;;
16387;SDS011;8303;53.446;9.988;2022-08-14T11:36:09;114.05;;;107.55;;
16387;SDS011;8303;53.446;9.988;2022-08-14T11:38:38;118.25;;;111.93;;
16387;SDS011;8303;53.446;9.988;2022-08-14T11:41:05;117.05;;;110.68;;
16387;SDS011;8303;53.446;9.988;2022-08-14T11:43:36;124.57;;;117.82;;
16387;SDS011;8303;53.446;9.988;2022-08-14T11:46:05;119.47;;;113.18;;
16387;SDS011;8303;53.446;9.988;2022-08-14T11:48:32;131.00;;;123.90;;
16387;SDS011;8303;53.446;9.988;2022-08-14T11:51:14;126.13;;;119.07;;
16387;SDS011;8303;53.446;9.988;2022-08-14T11:53:51;118.43;;;112.00;;
16387;SDS011;8303;53.446;9.988;2022-08-14T11:56:19;128.55;;;121.47;;
16387;SDS011;8303;53.446;9.988;2022-08-14T11:58:51;128.32;;;120.72;;
16387;SDS011;8303;53.446;9.988;2022-08-14T12:01:23;129.10;;;122.32;;
16387;SDS011;8303;53.446;9.988;2022-08-14T12:03:55;127.93;;;121.15;;
16387;SDS011;8303;53.446;9.988;2022-08-14T12:06:42;118.97;;;112.50;;
16387;SDS011;8303;53.446;9.988;2022-08-14T12:09:12;123.57;;;116.88;;
16387;SDS011;8303;53.446;9.988;2022-08-14T12:11:40;119.28;;;112.78;;
16387;SDS011;8303;53.446;9.988;2022-08-14T12:14:09;122.97;;;116.63;;
16387;SDS011;8303;53.446;9.988;2022-08-14T12:16:37;125.93;;;119.22;;
16387;SDS011;8303;53.446;9.988;2022-08-14T12:19:04;120.15;;;113.75;;
16387;SDS011;8303;53.446;9.988;2022-08-14T12:21:32;124.00;;;117.20;;
16387;SDS011;8303;53.446;9.988;2022-08-14T12:24:01;112.72;;;106.55;;
16387;SDS011;8303;53.446;9.988;2022-08-14T12:26:29;114.63;;;108.53;;
16387;SDS011;8303;53.446;9.988;2022-08-14T12:29:03;126.82;;;119.90;;
16387;SDS011;8303;53.446;9.988;2022-08-14T12:31:32;120.07;;;113.63;;
16387;SDS011;8303;53.446;9.988;2022-08-14T12:34:02;118.40;;;112.20;;
16387;SDS011;8303;53.446;9.988;2022-08-14T12:36:29;115.45;;;108.03;;
16387;SDS011;8303;53.446;9.988;2022-08-14T12:38:57;127.57;;;120.03;;
16387;SDS011;8303;53.446;9.988;2022-08-14T12:41:27;125.10;;;118.45;;
16387;SDS011;8303;53.446;9.988;2022-08-14T12:43:55;121.93;;;115.43;;
16387;SDS011;8303;53.446;9.988;2022-08-14T12:46:25;121.75;;;115.47;;
16387;SDS011;8303;53.446;9.988;2022-08-14T12:48:52;124.07;;;117.68;;
16387;SDS011;8303;53.446;9.988;2022-08-14T12:51:21;117.78;;;111.32;;
16387;SDS011;8303;53.446;9.988;2022-08-14T12:53:50;119.82;;;113.45;;
16387;SDS011;8303;53.446;9.988;2022-08-14T12:56:18;143.98;;;136.10;;
16387;SDS011;8303;53.446;9.988;2022-08-14T12:58:48;117.55;;;110.80;;
16387;SDS011;8303;53.446;9.988;2022-08-14T13:01:17;118.60;;;111.85;;
16387;SDS011;8303;53.446;9.988;2022-08-14T13:03:49;116.80;;;110.47;;
16387;SDS011;8303;53.446;9.988;2022-08-14T13:06:19;123.68;;;116.97;;
16387;SDS011;8303;53.446;9.988;2022-08-14T13:08:47;124.28;;;117.78;;
16387;SDS011;8303;53.446;9.988;2022-08-14T13:11:15;153.18;;;145.25;;
16387;SDS011;8303;53.446;9.988;2022-08-14T13:13:42;138.13;;;130.93;;
16387;SDS011;8303;53.446;9.988;2022-08-14T13:16:12;160.50;;;151.60;;
16387;SDS011;8303;53.446;9.988;2022-08-14T13:18:41;135.80;;;127.85;;
16387;SDS011;8303;53.446;9.988;2022-08-14T13:21:11;123.93;;;117.07;;
16387;SDS011;8303;53.446;9.988;2022-08-14T13:23:40;166.15;;;157.35;;
16387;SDS011;8303;53.446;9.988;2022-08-14T13:26:10;162.23;;;153.48;;
16387;SDS011;8303;53.446;9.988;2022-08-14T13:28:38;139.05;;;131.77;;
16387;SDS011;8303;53.446;9.988;2022-08-14T13:31:07;132.63;;;125.50;;
16387;SDS011;8303;53.446;9.988;2022-08-14T13:33:36;116.63;;;110.43;;
16387;SDS011;8303;53.446;9.988;2022-08-14T13:36:03;131.50;;;124.63;;
16387;SDS011;8303;53.446;9.988;2022-08-14T13:38:30;115.13;;;108.88;;
16387;SDS011;8303;53.446;9.988;2022-08-14T13:40:58;127.32;;;120.40;;
16387;SDS011;8303;53.446;9.988;2022-08-14T13:43:25;122.55;;;116.28;;
16387;SDS011;8303;53.446;9.988;2022-08-14T13:45:52;116.28;;;109.85;;
16387;SDS011;8303;53.446;9.988;2022-08-14T13:48:20;113.55;;;107.53;;
16387;SDS011;8303;53.446;9.988;2022-08-14T13:50:50;118.15;;;111.90;;
16387;SDS011;8303;53.446;9.988;2022-08-14T13:53:21;120.65;;;114.15;;
16387;SDS011;8303;53.446;9.988;2022-08-14T13:55:50;136.90;;;129.50;;
16387;SDS011;8303;53.446;9.988;2022-08-14T13:58:18;132.60;;;125.45;;
16387;SDS011;8303;53.446;9.988;2022-08-14T14:00:48;129.27;;;122.28;;
16387;SDS011;8303;53.446;9.988;2022-08-14T14:03:17;158.43;;;149.57;;
16387;SDS011;8303;53.446;9.988;2022-08-14T14:05:45;169.95;;;160.85;;
16387;SDS011;8303;53.446;9.988;2022-08-14T14:08:18;131.40;;;124.40;;
16387;SDS011;8303;53.446;9.988;2022-08-14T14:10:46;156.32;;;148.20;;
16387;SDS011;8303;53.446;9.988;2022-08-14T14:13:14;153.57;;;145.45;;
16387;SDS011;8303;53.446;9.988;2022-08-14T14:15:44;130.10;;;123.38;;
16387;SDS011;8303;53.446;9.988;2022-08-14T14:18:12;125.60;;;118.78;;
16387;SDS011;8303;53.446;9.988;2022-08-14T14:20:42;143.63;;;135.48;;
16387;SDS011;8303;53.446;9.988;2022-08-14T14:23:12;132.27;;;125.18;;
16387;SDS011;8303;53.446;9.988;2022-08-14T14:25:40;161.77;;;153.07;;
16387;SDS011;8303;53.446;9.988;2022-08-14T14:28:11;145.88;;;138.00;;
16387;SDS011;8303;53.446;9.988;2022-08-14T14:30:40;150.30;;;142.15;;
16387;SDS011;8303;53.446;9.988;2022-08-14T14:33:12;155.00;;;146.15;;
16387;SDS011;8303;53.446;9.988;2022-08-14T14:35:41;155.82;;;147.75;;
16387;SDS011;8303;53.446;9.988;2022-08-14T14:38:13;141.55;;;134.10;;
16387;SDS011;8303;53.446;9.988;2022-08-14T14:40:41;127.65;;;120.82;;
16387;SDS011;8303;53.446;9.988;2022-08-14T14:43:10;122.22;;;115.78;;
16387;SDS011;8303;53.446;9.988;2022-08-14T14:45:39;127.82;;;121.03;;
16387;SDS011;8303;53.446;9.988;2022-08-14T14:48:10;142.07;;;134.55;;
16387;SDS011;8303;53.446;9.988;2022-08-14T14:50:39;123.53;;;117.03;;
16387;SDS011;8303;53.446;9.988;2022-08-14T14:53:07;128.98;;;122.05;;
16387;SDS011;8303;53.446;9.988;2022-08-14T14:55:37;129.77;;;122.78;;
16387;SDS011;8303;53.446;9.988;2022-08-14T14:58:05;124.68;;;118.10;;
16387;SDS011;8303;53.446;9.988;2022-08-14T15:00:33;151.43;;;142.93;;
16387;SDS011;8303;53.446;9.988;2022-08-14T15:03:00;152.25;;;144.25;;
16387;SDS011;8303;53.446;9.988;2022-08-14T15:05:28;167.07;;;158.27;;
16387;SDS011;8303;53.446;9.988;2022-08-14T15:07:55;154.75;;;146.63;;
16387;SDS011;8303;53.446;9.988;2022-08-14T15:10:22;92.35;;;87.38;;
16387;SDS011;8303;53.446;9.988;2022-08-14T15:12:50;88.93;;;84.07;;
16387;SDS011;8303;53.446;9.988;2022-08-14T15:15:17;109.60;;;103.45;;
16387;SDS011;8303;53.446;9.988;2022-08-14T15:17:44;94.13;;;89.05;;
16387;SDS011;8303;53.446;9.988;2022-08-14T15:20:12;88.15;;;83.05;;
16387;SDS011;8303;53.446;9.988;2022-08-14T15:22:40;60.00;;;54.60;;
16387;SDS011;8303;53.446;9.988;2022-08-14T15:25:09;34.17;;;32.15;;
16387;SDS011;8303;53.446;9.988;2022-08-14T15:27:37;21.90;;;20.40;;
16387;SDS011;8303;53.446;9.988;2022-08-14T15:30:07;24.70;;;22.80;;
16387;SDS011;8303;53.446;9.988;2022-08-14T15:32:35;18.30;;;17.15;;
16387;SDS011;8303;53.446;9.988;2022-08-14T15:35:02;15.27;;;14.07;;
16387;SDS011;8303;53.446;9.988;2022-08-14T15:37:30;14.82;;;13.70;;
16387;SDS011;8303;53.446;9.988;2022-08-14T15:39:59;14.55;;;13.43;;
16387;SDS011;8303;53.446;9.988;2022-08-14T15:42:27;16.45;;;15.25;;
16387;SDS011;8303;53.446;9.988;2022-08-14T15:44:54;16.85;;;15.68;;
16387;SDS011;8303;53.446;9.988;2022-08-14T15:47:22;22.23;;;20.23;;
16387;SDS011;8303;53.446;9.988;2022-08-14T15:49:50;61.83;;;58.30;;
16387;SDS011;8303;53.446;9.988;2022-08-14T15:52:18;98.55;;;93.22;;
16387;SDS011;8303;53.446;9.988;2022-08-14T15:54:46;118.82;;;112.00;;
16387;SDS011;8303;53.446;9.988;2022-08-14T15:57:14;135.15;;;127.47;;
16387;SDS011;8303;53.446;9.988;2022-08-14T15:59:41;125.00;;;118.45;;
16387;SDS011;8303;53.446;9.988;2022-08-14T16:02:27;125.53;;;119.03;;
16387;SDS011;8303;53.446;9.988;2022-08-14T16:04:54;141.43;;;133.95;;
16387;SDS011;8303;53.446;9.988;2022-08-14T16:07:21;137.38;;;130.30;;
16387;SDS011;8303;53.446;9.988;2022-08-14T16:09:49;137.48;;;129.95;;
16387;SDS011;8303;53.446;9.988;2022-08-14T16:12:16;161.88;;;153.20;;
16387;SDS011;8303;53.446;9.988;2022-08-14T16:14:43;168.40;;;159.63;;
16387;SDS011;8303;53.446;9.988;2022-08-14T16:17:10;189.23;;;179.45;;
16387;SDS011;8303;53.446;9.988;2022-08-14T16:19:39;195.18;;;184.73;;
16387;SDS011;8303;53.446;9.988;2022-08-14T16:22:11;183.65;;;174.00;;
16387;SDS011;8303;53.446;9.988;2022-08-14T16:24:40;200.30;;;190.00;;
16387;SDS011;8303;53.446;9.988;2022-08-14T16:27:09;200.95;;;190.10;;
16387;SDS011;8303;53.446;9.988;2022-08-14T16:29:37;191.20;;;181.18;;
16387;SDS011;8303;53.446;9.988;2022-08-14T16:32:07;194.35;;;183.82;;
16387;SDS011;8303;53.446;9.988;2022-08-14T16:34:39;190.25;;;180.40;;
16387;SDS011;8303;53.446;9.988;2022-08-14T16:37:08;130.82;;;123.95;;
16387;SDS011;8303;53.446;9.988;2022-08-14T16:39:36;136.75;;;129.57;;
16387;SDS011;8303;53.446;9.988;2022-08-14T16:42:05;125.95;;;118.97;;
16387;SDS011;8303;53.446;9.988;2022-08-14T16:44:33;141.05;;;133.48;;
16387;SDS011;8303;53.446;9.988;2022-08-14T16:47:04;136.00;;;128.75;;
16387;SDS011;8303;53.446;9.988;2022-08-14T16:49:32;144.20;;;136.35;;
16387;SDS011;8303;53.446;9.988;2022-08-14T16:52:02;150.02;;;142.20;;
16387;SDS011;8303;53.446;9.988;2022-08-14T16:54:30;141.40;;;133.80;;
16387;SDS011;8303;53.446;9.988;2022-08-14T16:57:11;117.05;;;110.70;;
16387;SDS011;8303;53.446;9.988;2022-08-14T16:59:40;73.57;;;69.18;;
16387;SDS011;8303;53.446;9.988;2022-08-14T17:02:07;83.60;;;78.85;;
16387;SDS011;8303;53.446;9.988;2022-08-14T17:04:35;74.68;;;70.40;;
16387;SDS011;8303;53.446;9.988;2022-08-14T17:07:04;70.03;;;65.75;;
16387;SDS011;8303;53.446;9.988;2022-08-14T17:09:36;74.30;;;69.85;;
16387;SDS011;8303;53.446;9.988;2022-08-14T17:12:06;69.75;;;65.60;;
16387;SDS011;8303;53.446;9.988;2022-08-14T17:17:40;80.60;;;75.72;;
16387;SDS011;8303;53.446;9.988;2022-08-14T17:20:10;69.35;;;65.55;;
16387;SDS011;8303;53.446;9.988;2022-08-14T17:22:44;60.67;;;57.30;;
16387;SDS011;8303;53.446;9.988;2022-08-14T17:25:13;68.53;;;64.63;;
16387;SDS011;8303;53.446;9.988;2022-08-14T17:27:42;53.63;;;50.45;;
16387;SDS011;8303;53.446;9.988;2022-08-14T17:30:10;68.10;;;63.92;;
16387;SDS011;8303;53.446;9.988;2022-08-14T17:32:38;71.63;;;67.40;;
16387;SDS011;8303;53.446;9.988;2022-08-14T17:35:08;65.35;;;61.28;;
16387;SDS011;8303;53.446;9.988;2022-08-14T17:37:36;82.53;;;77.75;;
16387;SDS011;8303;53.446;9.988;2022-08-14T17:40:11;112.00;;;106.15;;
16387;SDS011;8303;53.446;9.988;2022-08-14T17:42:48;78.13;;;73.93;;
16387;SDS011;8303;53.446;9.988;2022-08-14T17:45:23;76.28;;;71.93;;
16387;SDS011;8303;53.446;9.988;2022-08-14T17:47:53;86.50;;;81.88;;
16387;SDS011;8303;53.446;9.988;2022-08-14T17:53:09;76.47;;;71.78;;
16387;SDS011;8303;53.446;9.988;2022-08-14T17:55:41;67.07;;;62.90;;
16387;SDS011;8303;53.446;9.988;2022-08-14T17:58:10;84.95;;;79.82;;
16387;SDS011;8303;53.446;9.988;2022-08-14T18:00:39;59.00;;;55.55;;
16387;SDS011;8303;53.446;9.988;2022-08-14T18:03:07;58.90;;;55.10;;
16387;SDS011;8303;53.446;9.988;2022-08-14T18:05:36;51.80;;;48.88;;
16387;SDS011;8303;53.446;9.988;2022-08-14T18:08:06;68.15;;;64.07;;
16387;SDS011;8303;53.446;9.988;2022-08-14T18:10:36;59.70;;;56.15;;
16387;SDS011;8303;53.446;9.988;2022-08-14T18:13:06;59.40;;;55.65;;
16387;SDS011;8303;53.446;9.988;2022-08-14T18:15:34;58.85;;;55.53;;
16387;SDS011;8303;53.446;9.988;2022-08-14T18:18:03;51.05;;;47.72;;
16387;SDS011;8303;53.446;9.988;2022-08-14T18:20:32;38.33;;;35.95;;
16387;SDS011;8303;53.446;9.988;2022-08-14T18:23:01;44.65;;;41.50;;
16387;SDS011;8303;53.446;9.988;2022-08-14T18:25:28;37.78;;;34.88;;
16387;SDS011;8303;53.446;9.988;2022-08-14T18:28:01;40.53;;;37.90;;
16387;SDS011;8303;53.446;9.988;2022-08-14T18:30:34;38.45;;;35.13;;
16387;SDS011;8303;53.446;9.988;2022-08-14T18:33:11;32.75;;;30.52;;
16387;SDS011;8303;53.446;9.988;2022-08-14T18:35:41;30.15;;;28.33;;
16387;SDS011;8303;53.446;9.988;2022-08-14T18:38:15;31.17;;;29.25;;
16387;SDS011;8303;53.446;9.988;2022-08-14T18:40:45;30.45;;;28.55;;
16387;SDS011;8303;53.446;9.988;2022-08-14T18:43:18;31.77;;;29.80;;
16387;SDS011;8303;53.446;9.988;2022-08-14T18:46:06;30.83;;;28.48;;
16387;SDS011;8303;53.446;9.988;2022-08-14T18:48:33;29.95;;;27.85;;
16387;SDS011;8303;53.446;9.988;2022-08-14T18:51:01;28.33;;;25.98;;
16387;SDS011;8303;53.446;9.988;2022-08-14T18:53:29;27.00;;;25.00;;
16387;SDS011;8303;53.446;9.988;2022-08-14T18:56:14;25.10;;;23.17;;
16387;SDS011;8303;53.446;9.988;2022-08-14T18:58:46;25.60;;;23.25;;
16387;SDS011;8303;53.446;9.988;2022-08-14T19:01:22;25.10;;;23.20;;
16387;SDS011;8303;53.446;9.988;2022-08-14T19:03:54;25.48;;;23.88;;
16387;SDS011;8303;53.446;9.988;2022-08-14T19:09:05;26.50;;;24.73;;
16387;SDS011;8303;53.446;9.988;2022-08-14T19:11:42;27.75;;;25.67;;
16387;SDS011;8303;53.446;9.988;2022-08-14T19:14:14;23.23;;;21.52;;
16387;SDS011;8303;53.446;9.988;2022-08-14T19:16:42;21.83;;;20.25;;
16387;SDS011;8303;53.446;9.988;2022-08-14T19:19:09;22.52;;;20.98;;
16387;SDS011;8303;53.446;9.988;2022-08-14T19:21:40;20.73;;;18.60;;
16387;SDS011;8303;53.446;9.988;2022-08-14T19:24:09;19.30;;;17.77;;
16387;SDS011;8303;53.446;9.988;2022-08-14T19:26:38;15.38;;;14.00;;
16387;SDS011;8303;53.446;9.988;2022-08-14T19:29:21;16.58;;;15.05;;
16387;SDS011;8303;53.446;9.988;2022-08-14T19:31:58;16.05;;;14.30;;
16387;SDS011;8303;53.446;9.988;2022-08-14T19:34:33;15.38;;;13.90;;
16387;SDS011;8303;53.446;9.988;2022-08-14T19:37:04;15.18;;;13.98;;